sensor_id;sensor_type;location;lat;lon;timestamp;pressure;altitude;pressure_sealevel;temperature;humidity
78835;BME280;68187;42.682;23.352;2023-02-28T00:00:49;95595.19;;;7.17;81.98
78835;BME280;68187;42.682;23.352;2023-02-28T00:03:41;95598.03;;;7.15;81.55
78835;BME280;68187;42.682;23.352;2023-02-28T00:06:22;95614.59;;;7.16;81.50
78835;BME280;68187;42.682;23.352;2023-02-28T00:08:56;95608.22;;;7.12;81.71
78835;BME280;68187;42.682;23.352;2023-02-28T00:11:31;95601.84;;;7.08;81.92
78835;BME280;68187;42.682;23.352;2023-02-28T00:14:15;95614.50;;;7.11;82.09
78835;BME280;68187;42.682;23.352;2023-02-28T00:17:01;95608.53;;;7.15;82.10
78835;BME280;68187;42.682;23.352;2023-02-28T00:20:10;95624.97;;;7.22;81.60
78835;BME280;68187;42.682;23.352;2023-02-28T00:22:43;95617.47;;;7.26;81.65
78835;BME280;68187;42.682;23.352;2023-02-28T00:25:20;95621.22;;;7.30;81.04
78835;BME280;68187;42.682;23.352;2023-02-28T00:28:11;95631.97;;;7.29;81.48
78835;BME280;68187;42.682;23.352;2023-02-28T00:30:49;95630.13;;;7.29;81.65
78835;BME280;68187;42.682;23.352;2023-02-28T00:33:36;95632.41;;;7.26;81.91
78835;BME280;68187;42.682;23.352;2023-02-28T00:36:39;95627.28;;;7.31;81.59
78835;BME280;68187;42.682;23.352;2023-02-28T00:39:22;95621.78;;;7.32;81.58
78835;BME280;68187;42.682;23.352;2023-02-28T00:42:05;95634.59;;;7.29;81.39
78835;BME280;68187;42.682;23.352;2023-02-28T00:45:09;95618.47;;;7.25;81.40
78835;BME280;68187;42.682;23.352;2023-02-28T00:47:50;95615.16;;;7.18;81.75
78835;BME280;68187;42.682;23.352;2023-02-28T00:50:32;95609.84;;;7.01;82.56
78835;BME280;68187;42.682;23.352;2023-02-28T00:53:19;95611.22;;;6.81;82.39
78835;BME280;68187;42.682;23.352;2023-02-28T00:55:58;95610.53;;;6.74;82.49
78835;BME280;68187;42.682;23.352;2023-02-28T00:58:29;95612.47;;;6.67;82.56
78835;BME280;68187;42.682;23.352;2023-02-28T01:01:13;95602.09;;;6.72;82.22
78835;BME280;68187;42.682;23.352;2023-02-28T01:03:46;95625.16;;;6.70;82.15
78835;BME280;68187;42.682;23.352;2023-02-28T01:06:29;95629.38;;;6.71;81.90
78835;BME280;68187;42.682;23.352;2023-02-28T01:09:07;95632.47;;;6.68;82.08
78835;BME280;68187;42.682;23.352;2023-02-28T01:11:41;95623.53;;;6.69;82.16
78835;BME280;68187;42.682;23.352;2023-02-28T01:14:21;95609.41;;;6.70;82.01
78835;BME280;68187;42.682;23.352;2023-02-28T01:16:59;95610.53;;;6.74;81.57
78835;BME280;68187;42.682;23.352;2023-02-28T01:19:38;95609.16;;;6.71;81.58
78835;BME280;68187;42.682;23.352;2023-02-28T01:22:20;95618.66;;;6.61;81.50
78835;BME280;68187;42.682;23.352;2023-02-28T01:25:00;95607.69;;;6.64;81.39
78835;BME280;68187;42.682;23.352;2023-02-28T01:27:41;95612.59;;;6.60;81.23
78835;BME280;68187;42.682;23.352;2023-02-28T01:30:13;95603.34;;;6.58;81.58
78835;BME280;68187;42.682;23.352;2023-02-28T01:32:50;95599.91;;;6.57;81.92
78835;BME280;68187;42.682;23.352;2023-02-28T01:35:31;95597.09;;;6.59;81.50
78835;BME280;68187;42.682;23.352;2023-02-28T01:38:03;95607.91;;;6.62;81.32
78835;BME280;68187;42.682;23.352;2023-02-28T01:40:46;95611.34;;;6.63;81.47
78835;BME280;68187;42.682;23.352;2023-02-28T01:43:24;95603.91;;;6.60;81.41
78835;BME280;68187;42.682;23.352;2023-02-28T01:45:57;95609.03;;;6.55;81.53
78835;BME280;68187;42.682;23.352;2023-02-28T01:48:34;95609.84;;;6.55;82.08
78835;BME280;68187;42.682;23.352;2023-02-28T01:51:07;95608.47;;;6.53;81.13
78835;BME280;68187;42.682;23.352;2023-02-28T01:53:47;95612.13;;;6.52;81.48
78835;BME280;68187;42.682;23.352;2023-02-28T01:56:51;95618.75;;;6.54;81.09
78835;BME280;68187;42.682;23.352;2023-02-28T01:59:52;95619.53;;;6.55;80.39
78835;BME280;68187;42.682;23.352;2023-02-28T02:02:55;95622.25;;;6.36;80.71
78835;BME280;68187;42.682;23.352;2023-02-28T02:08:55;95624.31;;;6.34;81.64
78835;BME280;68187;42.682;23.352;2023-02-28T02:11:48;95616.69;;;6.44;81.76
78835;BME280;68187;42.682;23.352;2023-02-28T02:14:58;95617.25;;;6.46;80.87
78835;BME280;68187;42.682;23.352;2023-02-28T02:18:01;95607.09;;;6.38;81.09
78835;BME280;68187;42.682;23.352;2023-02-28T02:21:18;95600.59;;;6.41;80.63
78835;BME280;68187;42.682;23.352;2023-02-28T02:24:33;95600.25;;;6.37;80.78
78835;BME280;68187;42.682;23.352;2023-02-28T02:27:36;95600.69;;;6.34;80.55
78835;BME280;68187;42.682;23.352;2023-02-28T02:30:46;95596.94;;;6.30;80.64
78835;BME280;68187;42.682;23.352;2023-02-28T02:37:01;95617.34;;;6.28;80.33
78835;BME280;68187;42.682;23.352;2023-02-28T02:39:58;95608.00;;;6.32;80.14
78835;BME280;68187;42.682;23.352;2023-02-28T02:43:03;95615.75;;;6.39;80.45
78835;BME280;68187;42.682;23.352;2023-02-28T02:46:02;95628.06;;;6.38;80.68
78835;BME280;68187;42.682;23.352;2023-02-28T02:48:41;95622.94;;;6.43;80.34
78835;BME280;68187;42.682;23.352;2023-02-28T02:51:25;95617.84;;;6.48;80.73
78835;BME280;68187;42.682;23.352;2023-02-28T02:54:19;95624.78;;;6.43;82.06
78835;BME280;68187;42.682;23.352;2023-02-28T02:57:21;95618.41;;;6.51;81.52
78835;BME280;68187;42.682;23.352;2023-02-28T03:00:10;95618.75;;;6.54;81.80
78835;BME280;68187;42.682;23.352;2023-02-28T03:03:20;95629.03;;;6.56;82.04
78835;BME280;68187;42.682;23.352;2023-02-28T03:06:09;95630.16;;;6.60;81.87
78835;BME280;68187;42.682;23.352;2023-02-28T03:09:10;95647.84;;;6.53;82.16
78835;BME280;68187;42.682;23.352;2023-02-28T03:12:31;95651.25;;;6.53;82.20
78835;BME280;68187;42.682;23.352;2023-02-28T03:15:29;95657.31;;;6.54;82.66
78835;BME280;68187;42.682;23.352;2023-02-28T03:18:21;95663.59;;;6.64;82.30
78835;BME280;68187;42.682;23.352;2023-02-28T03:21:09;95657.78;;;6.74;81.63
78835;BME280;68187;42.682;23.352;2023-02-28T03:24:53;95656.53;;;6.76;81.37
78835;BME280;68187;42.682;23.352;2023-02-28T03:30:58;95672.84;;;6.67;81.49
78835;BME280;68187;42.682;23.352;2023-02-28T03:34:03;95672.72;;;6.62;81.94
78835;BME280;68187;42.682;23.352;2023-02-28T03:37:20;95673.66;;;6.67;81.96
78835;BME280;68187;42.682;23.352;2023-02-28T03:40:55;95676.41;;;6.72;81.66
78835;BME280;68187;42.682;23.352;2023-02-28T03:46:46;95680.16;;;6.65;81.85
78835;BME280;68187;42.682;23.352;2023-02-28T03:49:24;95683.09;;;6.68;81.79
78835;BME280;68187;42.682;23.352;2023-02-28T03:52:07;95677.19;;;6.73;81.55
78835;BME280;68187;42.682;23.352;2023-02-28T03:54:56;95685.84;;;6.73;81.65
78835;BME280;68187;42.682;23.352;2023-02-28T03:57:59;95689.41;;;6.79;81.76
78835;BME280;68187;42.682;23.352;2023-02-28T04:00:46;95687.56;;;6.79;82.04
78835;BME280;68187;42.682;23.352;2023-02-28T04:03:49;95681.88;;;6.82;81.63
78835;BME280;68187;42.682;23.352;2023-02-28T04:06:49;95690.78;;;6.81;81.37
78835;BME280;68187;42.682;23.352;2023-02-28T04:09:53;95688.03;;;6.76;81.82
78835;BME280;68187;42.682;23.352;2023-02-28T04:12:47;95682.22;;;6.74;81.77
78835;BME280;68187;42.682;23.352;2023-02-28T04:15:28;95683.22;;;6.73;81.81
78835;BME280;68187;42.682;23.352;2023-02-28T04:18:07;95687.69;;;6.73;82.04
78835;BME280;68187;42.682;23.352;2023-02-28T04:20:59;95680.16;;;6.65;82.06
78835;BME280;68187;42.682;23.352;2023-02-28T04:23:42;95678.50;;;6.52;82.25
78835;BME280;68187;42.682;23.352;2023-02-28T04:26:27;95672.22;;;6.41;82.80
78835;BME280;68187;42.682;23.352;2023-02-28T04:29:05;95682.38;;;6.38;83.58
78835;BME280;68187;42.682;23.352;2023-02-28T04:32:12;95689.78;;;6.41;83.54
78835;BME280;68187;42.682;23.352;2023-02-28T04:44:09;95696.94;;;6.22;83.61
78835;BME280;68187;42.682;23.352;2023-02-28T04:47:44;95702.38;;;6.21;83.73
78835;BME280;68187;42.682;23.352;2023-02-28T04:50:47;95711.50;;;6.18;84.11
78835;BME280;68187;42.682;23.352;2023-02-28T04:53:28;95716.41;;;6.15;84.13
78835;BME280;68187;42.682;23.352;2023-02-28T04:57:05;95710.00;;;6.11;84.00
78835;BME280;68187;42.682;23.352;2023-02-28T05:28:19;95732.22;;;6.08;83.93
78835;BME280;68187;42.682;23.352;2023-02-28T05:31:21;95732.47;;;6.18;83.64
78835;BME280;68187;42.682;23.352;2023-02-28T05:37:30;95738.91;;;6.34;82.31
78835;BME280;68187;42.682;23.352;2023-02-28T06:22:21;95754.34;;;6.72;82.06
78835;BME280;68187;42.682;23.352;2023-02-28T06:28:20;95744.50;;;6.67;82.11
78835;BME280;68187;42.682;23.352;2023-02-28T06:30:48;95750.78;;;6.66;81.77
78835;BME280;68187;42.682;23.352;2023-02-28T06:33:19;95761.13;;;6.61;81.95
78835;BME280;68187;42.682;23.352;2023-02-28T06:35:47;95752.38;;;6.67;82.27
78835;BME280;68187;42.682;23.352;2023-02-28T06:38:18;95762.41;;;6.70;81.87
78835;BME280;68187;42.682;23.352;2023-02-28T06:40:53;95767.00;;;6.63;81.84
78835;BME280;68187;42.682;23.352;2023-02-28T06:43:28;95768.50;;;6.41;82.44
78835;BME280;68187;42.682;23.352;2023-02-28T06:46:00;95773.91;;;6.28;82.99
78835;BME280;68187;42.682;23.352;2023-02-28T06:48:28;95776.69;;;6.33;83.17
78835;BME280;68187;42.682;23.352;2023-02-28T06:51:02;95774.22;;;6.38;83.27
78835;BME280;68187;42.682;23.352;2023-02-28T06:53:32;95779.28;;;6.51;82.62
78835;BME280;68187;42.682;23.352;2023-02-28T06:56:05;95769.00;;;6.61;82.09
78835;BME280;68187;42.682;23.352;2023-02-28T06:58:33;95774.25;;;6.50;82.16
78835;BME280;68187;42.682;23.352;2023-02-28T07:01:01;95775.94;;;6.44;81.82
78835;BME280;68187;42.682;23.352;2023-02-28T07:03:29;95777.97;;;6.42;82.16
78835;BME280;68187;42.682;23.352;2023-02-28T07:05:57;95779.94;;;6.46;82.26
78835;BME280;68187;42.682;23.352;2023-02-28T07:08:25;95770.09;;;6.42;81.87
78835;BME280;68187;42.682;23.352;2023-02-28T07:11:19;95777.59;;;6.38;82.32
78835;BME280;68187;42.682;23.352;2023-02-28T07:13:51;95773.84;;;6.34;81.88
78835;BME280;68187;42.682;23.352;2023-02-28T07:16:19;95770.53;;;6.39;82.23
78835;BME280;68187;42.682;23.352;2023-02-28T07:18:47;95775.34;;;6.42;82.60
78835;BME280;68187;42.682;23.352;2023-02-28T07:21:15;95764.53;;;6.50;82.34
78835;BME280;68187;42.682;23.352;2023-02-28T07:23:43;95772.91;;;6.59;82.25
78835;BME280;68187;42.682;23.352;2023-02-28T07:26:14;95776.22;;;6.66;82.32
78835;BME280;68187;42.682;23.352;2023-02-28T07:28:43;95777.06;;;6.78;81.69
78835;BME280;68187;42.682;23.352;2023-02-28T07:31:12;95777.75;;;6.85;80.86
78835;BME280;68187;42.682;23.352;2023-02-28T07:33:41;95772.28;;;6.86;80.73
78835;BME280;68187;42.682;23.352;2023-02-28T07:36:11;95767.53;;;6.95;80.78
78835;BME280;68187;42.682;23.352;2023-02-28T07:38:41;95770.38;;;7.05;80.91
78835;BME280;68187;42.682;23.352;2023-02-28T07:41:09;95774.03;;;7.15;80.38
78835;BME280;68187;42.682;23.352;2023-02-28T07:43:38;95763.31;;;7.17;79.86
78835;BME280;68187;42.682;23.352;2023-02-28T07:46:08;95772.78;;;7.18;80.07
78835;BME280;68187;42.682;23.352;2023-02-28T07:48:36;95772.78;;;7.18;80.99
78835;BME280;68187;42.682;23.352;2023-02-28T07:51:04;95770.06;;;7.25;80.79
78835;BME280;68187;42.682;23.352;2023-02-28T07:53:32;95764.22;;;7.34;80.49
78835;BME280;68187;42.682;23.352;2023-02-28T07:56:01;95766.63;;;7.36;80.65
78835;BME280;68187;42.682;23.352;2023-02-28T07:58:30;95762.84;;;7.43;80.30
78835;BME280;68187;42.682;23.352;2023-02-28T08:01:05;95761.47;;;7.52;79.41
78835;BME280;68187;42.682;23.352;2023-02-28T08:03:33;95762.59;;;7.68;79.09
78835;BME280;68187;42.682;23.352;2023-02-28T08:06:02;95764.06;;;7.87;78.84
78835;BME280;68187;42.682;23.352;2023-02-28T08:08:30;95760.97;;;7.90;78.51
78835;BME280;68187;42.682;23.352;2023-02-28T08:10:59;95760.75;;;7.91;78.46
78835;BME280;68187;42.682;23.352;2023-02-28T08:13:28;95769.06;;;8.00;78.54
78835;BME280;68187;42.682;23.352;2023-02-28T08:15:56;95765.63;;;8.00;78.14
78835;BME280;68187;42.682;23.352;2023-02-28T08:18:25;95758.06;;;8.15;79.20
78835;BME280;68187;42.682;23.352;2023-02-28T08:20:56;95758.16;;;8.31;78.14
78835;BME280;68187;42.682;23.352;2023-02-28T08:27:05;95766.47;;;8.40;78.43
78835;BME280;68187;42.682;23.352;2023-02-28T08:29:33;95766.06;;;8.48;77.95
78835;BME280;68187;42.682;23.352;2023-02-28T08:32:07;95765.72;;;8.56;78.91
78835;BME280;68187;42.682;23.352;2023-02-28T08:34:42;95760.16;;;8.69;78.35
78835;BME280;68187;42.682;23.352;2023-02-28T08:37:10;95767.75;;;8.82;78.99
78835;BME280;68187;42.682;23.352;2023-02-28T08:40:06;95767.03;;;9.03;77.79
78835;BME280;68187;42.682;23.352;2023-02-28T08:45:27;95766.66;;;9.28;78.87
78835;BME280;68187;42.682;23.352;2023-02-28T08:51:39;95763.50;;;9.48;78.60
78835;BME280;68187;42.682;23.352;2023-02-28T08:54:07;95754.09;;;9.52;79.02
78835;BME280;68187;42.682;23.352;2023-02-28T08:56:46;95761.31;;;9.61;79.64
78835;BME280;68187;42.682;23.352;2023-02-28T08:59:14;95755.41;;;9.54;77.36
78835;BME280;68187;42.682;23.352;2023-02-28T09:01:42;95759.28;;;9.47;77.68
78835;BME280;68187;42.682;23.352;2023-02-28T09:04:18;95762.22;;;9.50;78.01
78835;BME280;68187;42.682;23.352;2023-02-28T09:06:48;95763.03;;;9.51;78.95
78835;BME280;68187;42.682;23.352;2023-02-28T09:09:16;95759.91;;;9.54;78.25
78835;BME280;68187;42.682;23.352;2023-02-28T09:11:44;95762.28;;;9.72;77.54
78835;BME280;68187;42.682;23.352;2023-02-28T09:14:14;95762.47;;;9.87;77.68
78835;BME280;68187;42.682;23.352;2023-02-28T09:16:43;95756.03;;;9.78;76.73
78835;BME280;68187;42.682;23.352;2023-02-28T09:19:11;95758.00;;;9.87;76.64
78835;BME280;68187;42.682;23.352;2023-02-28T09:21:39;95755.38;;;9.87;76.84
78835;BME280;68187;42.682;23.352;2023-02-28T09:24:09;95758.97;;;9.81;75.47
78835;BME280;68187;42.682;23.352;2023-02-28T09:26:38;95761.28;;;9.78;75.77
78835;BME280;68187;42.682;23.352;2023-02-28T09:29:06;95756.09;;;9.83;75.45
78835;BME280;68187;42.682;23.352;2023-02-28T09:31:34;95759.91;;;9.92;76.61
78835;BME280;68187;42.682;23.352;2023-02-28T09:34:03;95751.63;;;9.83;74.57
78835;BME280;68187;42.682;23.352;2023-02-28T09:36:31;95754.47;;;9.82;75.39
78835;BME280;68187;42.682;23.352;2023-02-28T09:39:04;95758.44;;;10.01;75.14
78835;BME280;68187;42.682;23.352;2023-02-28T09:41:41;95757.63;;;10.17;74.30
78835;BME280;68187;42.682;23.352;2023-02-28T09:44:17;95749.84;;;10.32;73.44
78835;BME280;68187;42.682;23.352;2023-02-28T09:46:49;95744.94;;;10.41;73.69
78835;BME280;68187;42.682;23.352;2023-02-28T09:49:22;95751.53;;;10.65;73.16
78835;BME280;68187;42.682;23.352;2023-02-28T09:51:56;95749.31;;;10.84;72.11
78835;BME280;68187;42.682;23.352;2023-02-28T09:54:28;95743.16;;;11.05;70.89
78835;BME280;68187;42.682;23.352;2023-02-28T09:57:01;95738.56;;;10.95;70.06
78835;BME280;68187;42.682;23.352;2023-02-28T09:59:43;95736.19;;;10.94;70.80
78835;BME280;68187;42.682;23.352;2023-02-28T10:02:28;95741.69;;;11.19;70.42
78835;BME280;68187;42.682;23.352;2023-02-28T10:05:07;95734.78;;;11.18;69.09
78835;BME280;68187;42.682;23.352;2023-02-28T10:07:49;95731.06;;;11.14;69.09
78835;BME280;68187;42.682;23.352;2023-02-28T10:10:24;95733.31;;;11.32;68.89
78835;BME280;68187;42.682;23.352;2023-02-28T10:12:58;95729.09;;;11.31;67.80
78835;BME280;68187;42.682;23.352;2023-02-28T10:15:29;95716.19;;;11.39;68.27
78835;BME280;68187;42.682;23.352;2023-02-28T10:18:00;95723.28;;;11.34;66.73
78835;BME280;68187;42.682;23.352;2023-02-28T10:20:33;95720.97;;;11.42;67.37
78835;BME280;68187;42.682;23.352;2023-02-28T10:23:07;95723.41;;;11.49;67.10
78835;BME280;68187;42.682;23.352;2023-02-28T10:25:37;95713.94;;;11.63;66.21
78835;BME280;68187;42.682;23.352;2023-02-28T10:28:12;95715.25;;;11.56;65.44
78835;BME280;68187;42.682;23.352;2023-02-28T10:30:42;95711.88;;;11.28;66.27
78835;BME280;68187;42.682;23.352;2023-02-28T10:33:19;95717.44;;;11.32;66.40
78835;BME280;68187;42.682;23.352;2023-02-28T10:35:49;95703.91;;;11.65;64.82
78835;BME280;68187;42.682;23.352;2023-02-28T10:38:19;95699.28;;;11.87;64.81
78835;BME280;68187;42.682;23.352;2023-02-28T10:40:59;95701.50;;;12.10;64.13
78835;BME280;68187;42.682;23.352;2023-02-28T10:47:03;95690.50;;;12.79;63.06
78835;BME280;68187;42.682;23.352;2023-02-28T10:53:35;95681.47;;;12.75;60.36
78835;BME280;68187;42.682;23.352;2023-02-28T10:59:39;95668.22;;;12.75;60.98
78835;BME280;68187;42.682;23.352;2023-02-28T11:02:52;95660.56;;;12.99;61.43
78835;BME280;68187;42.682;23.352;2023-02-28T11:05:44;95662.69;;;12.97;60.40
78835;BME280;68187;42.682;23.352;2023-02-28T11:16:13;95656.31;;;12.87;60.44
78835;BME280;68187;42.682;23.352;2023-02-28T11:19:20;95652.34;;;12.90;60.21
78835;BME280;68187;42.682;23.352;2023-02-28T11:25:56;95646.50;;;12.63;61.49
78835;BME280;68187;42.682;23.352;2023-02-28T11:36:38;95643.81;;;12.33;61.78
78835;BME280;68187;42.682;23.352;2023-02-28T11:39:15;95636.94;;;12.57;60.58
78835;BME280;68187;42.682;23.352;2023-02-28T11:45:08;95643.28;;;13.31;58.32
78835;BME280;68187;42.682;23.352;2023-02-28T11:47:44;95635.38;;;13.16;58.56
78835;BME280;68187;42.682;23.352;2023-02-28T11:50:33;95628.22;;;13.12;58.68
78835;BME280;68187;42.682;23.352;2023-02-28T11:53:10;95630.31;;;13.20;59.09
78835;BME280;68187;42.682;23.352;2023-02-28T11:55:44;95623.66;;;13.37;58.70
78835;BME280;68187;42.682;23.352;2023-02-28T11:58:29;95631.09;;;13.30;58.75
78835;BME280;68187;42.682;23.352;2023-02-28T12:01:30;95634.28;;;13.42;58.65
78835;BME280;68187;42.682;23.352;2023-02-28T12:04:11;95623.44;;;13.09;58.42
78835;BME280;68187;42.682;23.352;2023-02-28T12:06:48;95626.09;;;13.14;58.89
78835;BME280;68187;42.682;23.352;2023-02-28T12:09:35;95629.50;;;13.29;57.83
78835;BME280;68187;42.682;23.352;2023-02-28T12:12:20;95619.09;;;13.53;57.59
78835;BME280;68187;42.682;23.352;2023-02-28T12:15:15;95618.75;;;13.75;56.21
78835;BME280;68187;42.682;23.352;2023-02-28T12:18:11;95616.94;;;13.65;56.76
78835;BME280;68187;42.682;23.352;2023-02-28T12:20:49;95621.22;;;13.56;57.61
78835;BME280;68187;42.682;23.352;2023-02-28T12:23:35;95613.22;;;13.66;57.66
78835;BME280;68187;42.682;23.352;2023-02-28T12:26:15;95616.88;;;13.80;57.01
78835;BME280;68187;42.682;23.352;2023-02-28T12:28:49;95616.66;;;13.62;57.02
78835;BME280;68187;42.682;23.352;2023-02-28T12:31:21;95613.28;;;13.41;56.73
78835;BME280;68187;42.682;23.352;2023-02-28T12:33:53;95619.44;;;13.21;58.60
78835;BME280;68187;42.682;23.352;2023-02-28T12:36:23;95615.72;;;13.22;58.24
78835;BME280;68187;42.682;23.352;2023-02-28T12:38:55;95624.75;;;13.26;58.62
78835;BME280;68187;42.682;23.352;2023-02-28T12:41:29;95624.22;;;13.19;58.35
78835;BME280;68187;42.682;23.352;2023-02-28T12:44:03;95617.88;;;13.05;58.25
78835;BME280;68187;42.682;23.352;2023-02-28T12:46:35;95609.38;;;12.93;58.14
78835;BME280;68187;42.682;23.352;2023-02-28T12:49:09;95608.31;;;12.79;58.07
78835;BME280;68187;42.682;23.352;2023-02-28T12:51:39;95609.38;;;12.68;58.93
78835;BME280;68187;42.682;23.352;2023-02-28T12:54:16;95604.38;;;12.66;58.57
78835;BME280;68187;42.682;23.352;2023-02-28T12:56:50;95608.06;;;12.50;59.65
78835;BME280;68187;42.682;23.352;2023-02-28T12:59:25;95605.69;;;12.44;58.67
78835;BME280;68187;42.682;23.352;2023-02-28T13:05:31;95603.28;;;12.72;58.62
78835;BME280;68187;42.682;23.352;2023-02-28T13:08:30;95599.84;;;12.77;58.38
78835;BME280;68187;42.682;23.352;2023-02-28T13:11:03;95607.53;;;13.09;57.88
78835;BME280;68187;42.682;23.352;2023-02-28T13:13:31;95603.28;;;12.98;58.09
78835;BME280;68187;42.682;23.352;2023-02-28T13:16:04;95600.66;;;12.87;58.72
78835;BME280;68187;42.682;23.352;2023-02-28T13:18:36;95607.53;;;12.99;57.72
78835;BME280;68187;42.682;23.352;2023-02-28T13:21:08;95604.63;;;12.85;57.72
78835;BME280;68187;42.682;23.352;2023-02-28T13:23:58;95602.53;;;12.72;58.29
78835;BME280;68187;42.682;23.352;2023-02-28T13:29:32;95584.50;;;12.54;59.40
78835;BME280;68187;42.682;23.352;2023-02-28T13:35:15;95602.75;;;12.30;60.50
78835;BME280;68187;42.682;23.352;2023-02-28T13:38:24;95598.25;;;12.36;60.08
78835;BME280;68187;42.682;23.352;2023-02-28T13:40:52;95593.75;;;12.36;59.86
78835;BME280;68187;42.682;23.352;2023-02-28T13:43:20;95599.59;;;12.43;59.79
78835;BME280;68187;42.682;23.352;2023-02-28T13:46:10;95602.50;;;12.22;59.73
78835;BME280;68187;42.682;23.352;2023-02-28T13:48:39;95595.34;;;12.17;60.45
78835;BME280;68187;42.682;23.352;2023-02-28T13:51:39;95592.94;;;12.10;61.05
78835;BME280;68187;42.682;23.352;2023-02-28T13:54:31;95582.06;;;11.97;61.10
78835;BME280;68187;42.682;23.352;2023-02-28T13:57:11;95569.88;;;11.96;61.24
78835;BME280;68187;42.682;23.352;2023-02-28T13:59:50;95576.50;;;11.98;61.58
78835;BME280;68187;42.682;23.352;2023-02-28T14:05:25;95585.19;;;11.74;61.38
78835;BME280;68187;42.682;23.352;2023-02-28T14:07:58;95586.41;;;11.61;62.20
78835;BME280;68187;42.682;23.352;2023-02-28T14:10:31;95591.16;;;11.59;61.86
78835;BME280;68187;42.682;23.352;2023-02-28T14:13:11;95594.56;;;11.49;62.58
78835;BME280;68187;42.682;23.352;2023-02-28T14:15:43;95592.16;;;11.43;63.22
78835;BME280;68187;42.682;23.352;2023-02-28T14:18:22;95591.59;;;11.31;63.50
78835;BME280;68187;42.682;23.352;2023-02-28T14:20:55;95601.31;;;11.20;63.99
78835;BME280;68187;42.682;23.352;2023-02-28T14:26:58;95593.56;;;11.09;64.62
78835;BME280;68187;42.682;23.352;2023-02-28T14:29:45;95592.47;;;10.95;65.53
78835;BME280;68187;42.682;23.352;2023-02-28T14:32:32;95603.25;;;10.93;65.73
78835;BME280;68187;42.682;23.352;2023-02-28T14:35:09;95604.38;;;11.02;65.59
78835;BME280;68187;42.682;23.352;2023-02-28T14:37:41;95601.19;;;11.00;64.99
78835;BME280;68187;42.682;23.352;2023-02-28T14:40:16;95596.97;;;11.04;64.95
78835;BME280;68187;42.682;23.352;2023-02-28T14:42:55;95604.34;;;10.97;65.27
78835;BME280;68187;42.682;23.352;2023-02-28T14:45:23;95597.69;;;10.90;65.60
78835;BME280;68187;42.682;23.352;2023-02-28T14:47:52;95602.94;;;10.85;65.98
78835;BME280;68187;42.682;23.352;2023-02-28T14:50:21;95602.63;;;10.76;66.68
78835;BME280;68187;42.682;23.352;2023-02-28T14:52:52;95600.78;;;10.77;67.21
78835;BME280;68187;42.682;23.352;2023-02-28T14:55:25;95602.59;;;10.71;66.86
78835;BME280;68187;42.682;23.352;2023-02-28T14:57:57;95610.25;;;10.72;66.45
78835;BME280;68187;42.682;23.352;2023-02-28T15:00:27;95607.31;;;10.69;66.64
78835;BME280;68187;42.682;23.352;2023-02-28T15:02:56;95610.19;;;10.62;67.18
78835;BME280;68187;42.682;23.352;2023-02-28T15:05:27;95607.00;;;10.60;67.29
78835;BME280;68187;42.682;23.352;2023-02-28T15:08:10;95602.69;;;10.49;67.06
78835;BME280;68187;42.682;23.352;2023-02-28T15:10:39;95600.63;;;10.56;67.18
78835;BME280;68187;42.682;23.352;2023-02-28T15:13:13;95599.63;;;10.62;67.10
78835;BME280;68187;42.682;23.352;2023-02-28T15:15:47;95594.63;;;10.66;66.79
78835;BME280;68187;42.682;23.352;2023-02-28T15:18:30;95596.41;;;10.55;66.87
78835;BME280;68187;42.682;23.352;2023-02-28T15:21:29;95589.50;;;10.49;67.65
78835;BME280;68187;42.682;23.352;2023-02-28T15:23:59;95582.56;;;10.43;67.46
78835;BME280;68187;42.682;23.352;2023-02-28T15:26:44;95591.56;;;10.47;67.12
78835;BME280;68187;42.682;23.352;2023-02-28T15:29:13;95593.88;;;10.39;67.94
78835;BME280;68187;42.682;23.352;2023-02-28T15:31:44;95619.56;;;10.48;67.64
78835;BME280;68187;42.682;23.352;2023-02-28T15:34:18;95611.13;;;10.46;67.82
78835;BME280;68187;42.682;23.352;2023-02-28T15:36:48;95616.09;;;10.43;67.95
78835;BME280;68187;42.682;23.352;2023-02-28T15:39:20;95621.03;;;10.34;68.21
78835;BME280;68187;42.682;23.352;2023-02-28T15:41:47;95623.06;;;10.27;68.78
78835;BME280;68187;42.682;23.352;2023-02-28T15:44:25;95622.53;;;10.25;68.13
78835;BME280;68187;42.682;23.352;2023-02-28T15:46:59;95611.81;;;10.10;68.95
78835;BME280;68187;42.682;23.352;2023-02-28T15:49:27;95606.75;;;10.08;69.08
78835;BME280;68187;42.682;23.352;2023-02-28T15:51:59;95603.84;;;10.05;69.39
78835;BME280;68187;42.682;23.352;2023-02-28T15:54:29;95567.13;;;9.77;69.65
78835;BME280;68187;42.682;23.352;2023-02-28T15:56:58;95590.44;;;9.85;70.24
78835;BME280;68187;42.682;23.352;2023-02-28T15:59:29;95613.94;;;9.86;70.49
78835;BME280;68187;42.682;23.352;2023-02-28T16:02:13;95618.97;;;9.88;70.22
78835;BME280;68187;42.682;23.352;2023-02-28T16:04:57;95634.50;;;9.84;70.71
78835;BME280;68187;42.682;23.352;2023-02-28T16:07:25;95621.63;;;9.66;71.16
78835;BME280;68187;42.682;23.352;2023-02-28T16:09:53;95648.91;;;9.77;71.31
78835;BME280;68187;42.682;23.352;2023-02-28T16:12:23;95645.97;;;9.73;71.09
78835;BME280;68187;42.682;23.352;2023-02-28T16:14:52;95633.03;;;9.50;71.10
78835;BME280;68187;42.682;23.352;2023-02-28T16:17:21;95634.22;;;9.21;71.47
78835;BME280;68187;42.682;23.352;2023-02-28T16:19:49;95660.78;;;9.36;72.13
78835;BME280;68187;42.682;23.352;2023-02-28T16:22:15;95672.22;;;9.42;72.14
78835;BME280;68187;42.682;23.352;2023-02-28T16:24:45;95669.31;;;9.21;72.46
78835;BME280;68187;42.682;23.352;2023-02-28T16:27:17;95681.19;;;9.24;72.47
78835;BME280;68187;42.682;23.352;2023-02-28T16:29:45;95684.06;;;9.22;72.74
78835;BME280;68187;42.682;23.352;2023-02-28T16:32:14;95672.41;;;9.02;72.32
78835;BME280;68187;42.682;23.352;2023-02-28T16:34:42;95689.53;;;8.99;72.67
78835;BME280;68187;42.682;23.352;2023-02-28T16:37:11;95692.25;;;8.88;73.05
78835;BME280;68187;42.682;23.352;2023-02-28T16:39:39;95696.38;;;8.84;73.37